sensor_id;sensor_type;location;lat;lon;timestamp;P1;durP1;ratioP1;P2;durP2;ratioP2
13102;SDS011;52970;46.752;17.108;2023-06-14T00:02:15;4.18;;;2.97;;
13102;SDS011;52970;46.752;17.108;2023-06-14T00:04:40;3.20;;;2.90;;
13102;SDS011;52970;46.752;17.108;2023-06-14T00:07:06;2.88;;;2.67;;
13102;SDS011;52970;46.752;17.108;2023-06-14T00:09:33;4.47;;;2.97;;
13102;SDS011;52970;46.752;17.108;2023-06-14T00:11:59;3.38;;;2.90;;
13102;SDS011;52970;46.752;17.108;2023-06-14T00:14:24;3.53;;;2.75;;
13102;SDS011;52970;46.752;17.108;2023-06-14T00:16:49;5.72;;;3.20;;
13102;SDS011;52970;46.752;17.108;2023-06-14T00:19:17;3.20;;;2.88;;
13102;SDS011;52970;46.752;17.108;2023-06-14T00:21:42;3.40;;;2.80;;
13102;SDS011;52970;46.752;17.108;2023-06-14T00:24:08;3.40;;;3.10;;
13102;SDS011;52970;46.752;17.108;2023-06-14T00:26:33;3.10;;;2.90;;
13102;SDS011;52970;46.752;17.108;2023-06-14T00:28:58;2.95;;;2.70;;
13102;SDS011;52970;46.752;17.108;2023-06-14T00:31:24;3.65;;;2.97;;
13102;SDS011;52970;46.752;17.108;2023-06-14T00:33:49;4.72;;;3.10;;
13102;SDS011;52970;46.752;17.108;2023-06-14T00:36:14;3.10;;;2.47;;
13102;SDS011;52970;46.752;17.108;2023-06-14T00:38:40;3.10;;;2.83;;
13102;SDS011;52970;46.752;17.108;2023-06-14T00:41:05;3.85;;;3.03;;
13102;SDS011;52970;46.752;17.108;2023-06-14T00:43:30;4.47;;;2.88;;
13102;SDS011;52970;46.752;17.108;2023-06-14T00:45:56;3.15;;;2.85;;
13102;SDS011;52970;46.752;17.108;2023-06-14T00:48:21;4.55;;;2.90;;
13102;SDS011;52970;46.752;17.108;2023-06-14T00:50:49;3.92;;;2.63;;
13102;SDS011;52970;46.752;17.108;2023-06-14T00:53:15;4.05;;;3.03;;
13102;SDS011;52970;46.752;17.108;2023-06-14T00:55:42;3.20;;;3.00;;
13102;SDS011;52970;46.752;17.108;2023-06-14T00:58:07;3.53;;;2.90;;
13102;SDS011;52970;46.752;17.108;2023-06-14T01:00:33;4.28;;;2.95;;
13102;SDS011;52970;46.752;17.108;2023-06-14T01:02:58;6.13;;;3.03;;
13102;SDS011;52970;46.752;17.108;2023-06-14T01:05:24;3.17;;;2.85;;
13102;SDS011;52970;46.752;17.108;2023-06-14T01:13:07;4.82;;;3.17;;
13102;SDS011;52970;46.752;17.108;2023-06-14T01:15:34;2.72;;;2.53;;
13102;SDS011;52970;46.752;17.108;2023-06-14T01:18:00;3.28;;;2.83;;
13102;SDS011;52970;46.752;17.108;2023-06-14T01:20:31;3.10;;;2.80;;
13102;SDS011;52970;46.752;17.108;2023-06-14T01:22:57;4.90;;;2.90;;
13102;SDS011;52970;46.752;17.108;2023-06-14T01:25:22;6.00;;;3.30;;
13102;SDS011;52970;46.752;17.108;2023-06-14T01:27:48;2.88;;;2.67;;
13102;SDS011;52970;46.752;17.108;2023-06-14T01:30:14;2.95;;;2.70;;
13102;SDS011;52970;46.752;17.108;2023-06-14T01:32:40;3.08;;;2.83;;
13102;SDS011;52970;46.752;17.108;2023-06-14T01:35:05;3.28;;;2.85;;
13102;SDS011;52970;46.752;17.108;2023-06-14T01:37:31;3.10;;;2.75;;
13102;SDS011;52970;46.752;17.108;2023-06-14T01:39:56;2.88;;;2.67;;
13102;SDS011;52970;46.752;17.108;2023-06-14T01:42:21;4.32;;;2.70;;
13102;SDS011;52970;46.752;17.108;2023-06-14T01:44:48;4.75;;;2.80;;
13102;SDS011;52970;46.752;17.108;2023-06-14T01:47:14;2.90;;;2.70;;
13102;SDS011;52970;46.752;17.108;2023-06-14T01:49:39;2.92;;;2.60;;
13102;SDS011;52970;46.752;17.108;2023-06-14T01:52:05;3.15;;;2.70;;
13102;SDS011;52970;46.752;17.108;2023-06-14T01:54:31;3.47;;;2.70;;
13102;SDS011;52970;46.752;17.108;2023-06-14T01:56:56;3.47;;;3.10;;
13102;SDS011;52970;46.752;17.108;2023-06-14T01:59:22;2.85;;;2.65;;
13102;SDS011;52970;46.752;17.108;2023-06-14T02:01:47;2.78;;;2.53;;
13102;SDS011;52970;46.752;17.108;2023-06-14T02:04:12;2.80;;;2.58;;
13102;SDS011;52970;46.752;17.108;2023-06-14T02:06:37;4.53;;;2.78;;
13102;SDS011;52970;46.752;17.108;2023-06-14T02:09:03;3.08;;;2.80;;
13102;SDS011;52970;46.752;17.108;2023-06-14T02:11:28;3.15;;;2.85;;
13102;SDS011;52970;46.752;17.108;2023-06-14T02:13:54;3.22;;;2.95;;
13102;SDS011;52970;46.752;17.108;2023-06-14T02:16:20;4.25;;;3.30;;
13102;SDS011;52970;46.752;17.108;2023-06-14T02:18:45;4.70;;;2.75;;
13102;SDS011;52970;46.752;17.108;2023-06-14T02:21:11;4.05;;;2.88;;
13102;SDS011;52970;46.752;17.108;2023-06-14T02:23:36;3.55;;;2.80;;
13102;SDS011;52970;46.752;17.108;2023-06-14T02:26:01;3.58;;;2.63;;
13102;SDS011;52970;46.752;17.108;2023-06-14T02:28:27;3.97;;;2.88;;
13102;SDS011;52970;46.752;17.108;2023-06-14T02:30:53;6.60;;;3.20;;
13102;SDS011;52970;46.752;17.108;2023-06-14T02:33:18;3.78;;;3.05;;
13102;SDS011;52970;46.752;17.108;2023-06-14T02:35:43;2.97;;;2.78;;
13102;SDS011;52970;46.752;17.108;2023-06-14T02:38:08;3.58;;;3.00;;
13102;SDS011;52970;46.752;17.108;2023-06-14T02:40:34;3.30;;;3.00;;
13102;SDS011;52970;46.752;17.108;2023-06-14T02:42:59;3.40;;;3.05;;
13102;SDS011;52970;46.752;17.108;2023-06-14T02:45:24;4.25;;;2.88;;
13102;SDS011;52970;46.752;17.108;2023-06-14T02:47:50;3.75;;;3.13;;
13102;SDS011;52970;46.752;17.108;2023-06-14T02:50:16;3.00;;;2.80;;
13102;SDS011;52970;46.752;17.108;2023-06-14T02:52:41;3.60;;;2.83;;
13102;SDS011;52970;46.752;17.108;2023-06-14T02:55:09;3.30;;;3.00;;
13102;SDS011;52970;46.752;17.108;2023-06-14T02:57:35;4.63;;;3.67;;
13102;SDS011;52970;46.752;17.108;2023-06-14T03:00:00;5.00;;;3.20;;
13102;SDS011;52970;46.752;17.108;2023-06-14T03:02:25;4.35;;;3.13;;
13102;SDS011;52970;46.752;17.108;2023-06-14T03:04:50;6.00;;;3.20;;
13102;SDS011;52970;46.752;17.108;2023-06-14T03:07:16;6.55;;;3.30;;
13102;SDS011;52970;46.752;17.108;2023-06-14T03:09:44;4.35;;;3.50;;
13102;SDS011;52970;46.752;17.108;2023-06-14T03:12:10;4.90;;;3.40;;
13102;SDS011;52970;46.752;17.108;2023-06-14T03:14:36;3.80;;;3.40;;
13102;SDS011;52970;46.752;17.108;2023-06-14T03:17:04;4.00;;;3.50;;
13102;SDS011;52970;46.752;17.108;2023-06-14T03:19:29;4.35;;;3.25;;
13102;SDS011;52970;46.752;17.108;2023-06-14T03:21:55;4.95;;;3.50;;
13102;SDS011;52970;46.752;17.108;2023-06-14T03:24:22;4.13;;;3.53;;
13102;SDS011;52970;46.752;17.108;2023-06-14T03:26:47;4.63;;;3.10;;
13102;SDS011;52970;46.752;17.108;2023-06-14T03:29:12;3.92;;;3.20;;
13102;SDS011;52970;46.752;17.108;2023-06-14T03:31:41;3.83;;;3.10;;
13102;SDS011;52970;46.752;17.108;2023-06-14T03:34:20;4.00;;;3.10;;
13102;SDS011;52970;46.752;17.108;2023-06-14T03:36:46;3.63;;;3.33;;
13102;SDS011;52970;46.752;17.108;2023-06-14T03:39:11;4.18;;;3.25;;
13102;SDS011;52970;46.752;17.108;2023-06-14T03:41:36;3.65;;;3.20;;
13102;SDS011;52970;46.752;17.108;2023-06-14T03:44:02;4.85;;;3.30;;
13102;SDS011;52970;46.752;17.108;2023-06-14T03:46:27;3.72;;;3.42;;
13102;SDS011;52970;46.752;17.108;2023-06-14T03:48:53;3.92;;;3.35;;
13102;SDS011;52970;46.752;17.108;2023-06-14T03:51:18;3.30;;;3.08;;
13102;SDS011;52970;46.752;17.108;2023-06-14T03:53:44;3.58;;;3.03;;
13102;SDS011;52970;46.752;17.108;2023-06-14T03:56:09;3.83;;;3.17;;
13102;SDS011;52970;46.752;17.108;2023-06-14T03:58:35;6.32;;;3.33;;
13102;SDS011;52970;46.752;17.108;2023-06-14T04:01:00;4.28;;;3.40;;
13102;SDS011;52970;46.752;17.108;2023-06-14T04:03:25;4.63;;;2.88;;
13102;SDS011;52970;46.752;17.108;2023-06-14T04:05:53;4.68;;;3.38;;
13102;SDS011;52970;46.752;17.108;2023-06-14T04:08:21;4.13;;;3.40;;
13102;SDS011;52970;46.752;17.108;2023-06-14T04:10:47;3.95;;;3.63;;
13102;SDS011;52970;46.752;17.108;2023-06-14T04:13:12;3.70;;;3.40;;
13102;SDS011;52970;46.752;17.108;2023-06-14T04:15:38;4.57;;;3.42;;
13102;SDS011;52970;46.752;17.108;2023-06-14T04:18:07;3.88;;;3.40;;
13102;SDS011;52970;46.752;17.108;2023-06-14T04:20:32;3.65;;;3.30;;
13102;SDS011;52970;46.752;17.108;2023-06-14T04:23:10;3.80;;;3.50;;
13102;SDS011;52970;46.752;17.108;2023-06-14T04:25:37;4.05;;;3.63;;
13102;SDS011;52970;46.752;17.108;2023-06-14T04:28:02;5.25;;;3.63;;
13102;SDS011;52970;46.752;17.108;2023-06-14T04:30:28;3.72;;;3.10;;
13102;SDS011;52970;46.752;17.108;2023-06-14T04:32:56;4.60;;;3.78;;
13102;SDS011;52970;46.752;17.108;2023-06-14T04:35:22;4.38;;;3.55;;
13102;SDS011;52970;46.752;17.108;2023-06-14T04:37:49;8.23;;;3.42;;
13102;SDS011;52970;46.752;17.108;2023-06-14T04:40:14;4.20;;;3.80;;
13102;SDS011;52970;46.752;17.108;2023-06-14T04:42:39;4.20;;;3.58;;
13102;SDS011;52970;46.752;17.108;2023-06-14T04:45:05;4.47;;;3.40;;
13102;SDS011;52970;46.752;17.108;2023-06-14T04:47:32;4.07;;;3.65;;
13102;SDS011;52970;46.752;17.108;2023-06-14T04:49:57;6.00;;;3.90;;
13102;SDS011;52970;46.752;17.108;2023-06-14T04:52:22;6.70;;;3.70;;
13102;SDS011;52970;46.752;17.108;2023-06-14T04:54:48;4.90;;;3.80;;
13102;SDS011;52970;46.752;17.108;2023-06-14T04:57:13;4.38;;;3.80;;
13102;SDS011;52970;46.752;17.108;2023-06-14T04:59:42;5.78;;;3.80;;
13102;SDS011;52970;46.752;17.108;2023-06-14T05:02:09;4.05;;;3.67;;
13102;SDS011;52970;46.752;17.108;2023-06-14T05:04:34;4.05;;;3.70;;
13102;SDS011;52970;46.752;17.108;2023-06-14T05:06:59;4.55;;;3.85;;
13102;SDS011;52970;46.752;17.108;2023-06-14T05:09:26;5.65;;;4.00;;
13102;SDS011;52970;46.752;17.108;2023-06-14T05:11:51;4.07;;;3.67;;
13102;SDS011;52970;46.752;17.108;2023-06-14T05:14:16;6.15;;;4.60;;
13102;SDS011;52970;46.752;17.108;2023-06-14T05:16:43;5.40;;;4.47;;
13102;SDS011;52970;46.752;17.108;2023-06-14T05:19:08;8.80;;;4.20;;
13102;SDS011;52970;46.752;17.108;2023-06-14T05:21:35;5.07;;;3.92;;
13102;SDS011;52970;46.752;17.108;2023-06-14T05:24:00;4.78;;;3.78;;
13102;SDS011;52970;46.752;17.108;2023-06-14T05:26:26;5.20;;;4.32;;
13102;SDS011;52970;46.752;17.108;2023-06-14T05:28:55;5.60;;;4.35;;
13102;SDS011;52970;46.752;17.108;2023-06-14T05:31:22;5.97;;;4.38;;
13102;SDS011;52970;46.752;17.108;2023-06-14T05:33:47;5.90;;;4.13;;
13102;SDS011;52970;46.752;17.108;2023-06-14T05:36:13;5.10;;;4.45;;
13102;SDS011;52970;46.752;17.108;2023-06-14T05:38:38;6.78;;;4.82;;
13102;SDS011;52970;46.752;17.108;2023-06-14T05:41:04;7.80;;;4.25;;
13102;SDS011;52970;46.752;17.108;2023-06-14T05:43:29;5.38;;;4.22;;
13102;SDS011;52970;46.752;17.108;2023-06-14T05:45:54;6.13;;;4.55;;
13102;SDS011;52970;46.752;17.108;2023-06-14T05:48:19;4.45;;;4.03;;
13102;SDS011;52970;46.752;17.108;2023-06-14T05:50:45;5.70;;;4.35;;
13102;SDS011;52970;46.752;17.108;2023-06-14T05:53:10;6.30;;;4.15;;
13102;SDS011;52970;46.752;17.108;2023-06-14T05:55:36;4.32;;;3.90;;
13102;SDS011;52970;46.752;17.108;2023-06-14T05:58:01;5.35;;;4.20;;
13102;SDS011;52970;46.752;17.108;2023-06-14T06:00:27;5.68;;;4.15;;
13102;SDS011;52970;46.752;17.108;2023-06-14T06:02:52;6.72;;;4.32;;
13102;SDS011;52970;46.752;17.108;2023-06-14T06:05:18;5.82;;;4.00;;
13102;SDS011;52970;46.752;17.108;2023-06-14T06:07:43;6.60;;;4.80;;
13102;SDS011;52970;46.752;17.108;2023-06-14T06:10:10;8.50;;;4.60;;
13102;SDS011;52970;46.752;17.108;2023-06-14T06:12:36;6.30;;;4.57;;
13102;SDS011;52970;46.752;17.108;2023-06-14T06:15:01;7.40;;;4.63;;
13102;SDS011;52970;46.752;17.108;2023-06-14T06:17:28;6.22;;;4.15;;
13102;SDS011;52970;46.752;17.108;2023-06-14T06:19:53;4.88;;;4.47;;
13102;SDS011;52970;46.752;17.108;2023-06-14T06:22:18;5.25;;;4.57;;
13102;SDS011;52970;46.752;17.108;2023-06-14T06:24:44;5.28;;;4.50;;
13102;SDS011;52970;46.752;17.108;2023-06-14T06:27:09;5.68;;;4.53;;
13102;SDS011;52970;46.752;17.108;2023-06-14T06:29:35;5.60;;;4.43;;
13102;SDS011;52970;46.752;17.108;2023-06-14T06:32:01;4.68;;;4.28;;
13102;SDS011;52970;46.752;17.108;2023-06-14T06:34:26;6.40;;;5.32;;
13102;SDS011;52970;46.752;17.108;2023-06-14T06:36:51;7.72;;;4.65;;
13102;SDS011;52970;46.752;17.108;2023-06-14T06:39:17;8.77;;;5.07;;
13102;SDS011;52970;46.752;17.108;2023-06-14T06:41:42;5.07;;;4.28;;
13102;SDS011;52970;46.752;17.108;2023-06-14T06:44:07;4.88;;;4.13;;
13102;SDS011;52970;46.752;17.108;2023-06-14T06:46:33;5.45;;;4.38;;
13102;SDS011;52970;46.752;17.108;2023-06-14T06:48:59;5.28;;;4.15;;
13102;SDS011;52970;46.752;17.108;2023-06-14T06:51:25;7.22;;;4.32;;
13102;SDS011;52970;46.752;17.108;2023-06-14T06:53:53;4.90;;;4.05;;
13102;SDS011;52970;46.752;17.108;2023-06-14T06:56:19;6.07;;;4.38;;
13102;SDS011;52970;46.752;17.108;2023-06-14T06:58:47;6.32;;;4.32;;
13102;SDS011;52970;46.752;17.108;2023-06-14T07:01:13;5.70;;;4.25;;
13102;SDS011;52970;46.752;17.108;2023-06-14T07:03:38;5.57;;;3.78;;
13102;SDS011;52970;46.752;17.108;2023-06-14T07:06:04;5.57;;;4.07;;
13102;SDS011;52970;46.752;17.108;2023-06-14T07:08:29;6.03;;;4.47;;
13102;SDS011;52970;46.752;17.108;2023-06-14T07:10:54;5.18;;;4.22;;
13102;SDS011;52970;46.752;17.108;2023-06-14T07:13:20;4.60;;;4.20;;
13102;SDS011;52970;46.752;17.108;2023-06-14T07:15:46;6.18;;;4.10;;
13102;SDS011;52970;46.752;17.108;2023-06-14T07:18:11;4.40;;;4.00;;
13102;SDS011;52970;46.752;17.108;2023-06-14T07:20:36;3.95;;;3.55;;
13102;SDS011;52970;46.752;17.108;2023-06-14T07:23:03;5.10;;;4.60;;
13102;SDS011;52970;46.752;17.108;2023-06-14T07:25:28;5.55;;;4.47;;
13102;SDS011;52970;46.752;17.108;2023-06-14T07:27:54;5.95;;;4.15;;
13102;SDS011;52970;46.752;17.108;2023-06-14T07:30:19;5.53;;;4.07;;
13102;SDS011;52970;46.752;17.108;2023-06-14T07:32:45;7.15;;;3.53;;
13102;SDS011;52970;46.752;17.108;2023-06-14T07:35:10;3.92;;;3.60;;
13102;SDS011;52970;46.752;17.108;2023-06-14T07:37:36;4.50;;;3.70;;
13102;SDS011;52970;46.752;17.108;2023-06-14T07:40:01;4.13;;;3.67;;
13102;SDS011;52970;46.752;17.108;2023-06-14T07:42:31;5.25;;;3.90;;
13102;SDS011;52970;46.752;17.108;2023-06-14T07:44:57;4.20;;;3.90;;
13102;SDS011;52970;46.752;17.108;2023-06-14T07:47:22;4.55;;;3.97;;
13102;SDS011;52970;46.752;17.108;2023-06-14T07:49:47;5.75;;;3.67;;
13102;SDS011;52970;46.752;17.108;2023-06-14T07:52:12;4.00;;;3.60;;
13102;SDS011;52970;46.752;17.108;2023-06-14T07:54:38;4.75;;;3.85;;
13102;SDS011;52970;46.752;17.108;2023-06-14T07:57:03;4.53;;;4.10;;
13102;SDS011;52970;46.752;17.108;2023-06-14T07:59:29;5.03;;;4.40;;
13102;SDS011;52970;46.752;17.108;2023-06-14T08:01:54;4.68;;;4.22;;
13102;SDS011;52970;46.752;17.108;2023-06-14T08:04:20;7.13;;;4.47;;
13102;SDS011;52970;46.752;17.108;2023-06-14T08:06:45;4.10;;;3.67;;
13102;SDS011;52970;46.752;17.108;2023-06-14T08:09:11;6.22;;;3.90;;
13102;SDS011;52970;46.752;17.108;2023-06-14T08:11:36;4.53;;;4.03;;
13102;SDS011;52970;46.752;17.108;2023-06-14T08:14:01;4.05;;;3.75;;
13102;SDS011;52970;46.752;17.108;2023-06-14T08:16:27;5.18;;;3.95;;
13102;SDS011;52970;46.752;17.108;2023-06-14T08:18:52;4.90;;;3.80;;
13102;SDS011;52970;46.752;17.108;2023-06-14T08:21:17;3.92;;;3.60;;
13102;SDS011;52970;46.752;17.108;2023-06-14T08:23:43;5.53;;;4.45;;
13102;SDS011;52970;46.752;17.108;2023-06-14T08:26:08;5.72;;;4.55;;
13102;SDS011;52970;46.752;17.108;2023-06-14T08:28:34;4.55;;;4.13;;
13102;SDS011;52970;46.752;17.108;2023-06-14T08:30:59;7.00;;;4.70;;
13102;SDS011;52970;46.752;17.108;2023-06-14T08:33:25;4.72;;;4.32;;
13102;SDS011;52970;46.752;17.108;2023-06-14T08:35:50;5.60;;;3.80;;
13102;SDS011;52970;46.752;17.108;2023-06-14T08:38:15;6.47;;;4.45;;
13102;SDS011;52970;46.752;17.108;2023-06-14T08:40:41;4.18;;;3.78;;
13102;SDS011;52970;46.752;17.108;2023-06-14T08:43:07;4.65;;;4.07;;
13102;SDS011;52970;46.752;17.108;2023-06-14T08:45:32;5.53;;;4.00;;
13102;SDS011;52970;46.752;17.108;2023-06-14T08:47:57;5.38;;;3.95;;
13102;SDS011;52970;46.752;17.108;2023-06-14T08:50:24;4.38;;;3.97;;
13102;SDS011;52970;46.752;17.108;2023-06-14T08:52:55;7.38;;;4.00;;
13102;SDS011;52970;46.752;17.108;2023-06-14T08:55:22;7.53;;;4.40;;
13102;SDS011;52970;46.752;17.108;2023-06-14T08:57:51;5.32;;;4.13;;
13102;SDS011;52970;46.752;17.108;2023-06-14T09:00:19;4.57;;;3.55;;
13102;SDS011;52970;46.752;17.108;2023-06-14T09:02:45;7.55;;;4.13;;
13102;SDS011;52970;46.752;17.108;2023-06-14T09:05:11;4.38;;;3.70;;
13102;SDS011;52970;46.752;17.108;2023-06-14T09:07:38;4.88;;;4.38;;
13102;SDS011;52970;46.752;17.108;2023-06-14T09:10:06;4.45;;;3.83;;
13102;SDS011;52970;46.752;17.108;2023-06-14T09:12:32;3.88;;;3.55;;
13102;SDS011;52970;46.752;17.108;2023-06-14T09:14:57;5.13;;;3.67;;
13102;SDS011;52970;46.752;17.108;2023-06-14T09:17:22;4.63;;;3.80;;
13102;SDS011;52970;46.752;17.108;2023-06-14T09:19:48;4.18;;;3.60;;
13102;SDS011;52970;46.752;17.108;2023-06-14T09:22:13;4.22;;;3.72;;
13102;SDS011;52970;46.752;17.108;2023-06-14T09:24:38;3.88;;;3.45;;
13102;SDS011;52970;46.752;17.108;2023-06-14T09:27:04;4.30;;;3.13;;
13102;SDS011;52970;46.752;17.108;2023-06-14T09:29:29;3.67;;;3.38;;
13102;SDS011;52970;46.752;17.108;2023-06-14T09:31:56;3.67;;;3.30;;
13102;SDS011;52970;46.752;17.108;2023-06-14T09:34:21;4.28;;;3.50;;
13102;SDS011;52970;46.752;17.108;2023-06-14T09:36:48;3.70;;;3.40;;
13102;SDS011;52970;46.752;17.108;2023-06-14T09:39:16;4.63;;;3.88;;
13102;SDS011;52970;46.752;17.108;2023-06-14T09:41:42;4.55;;;3.40;;
13102;SDS011;52970;46.752;17.108;2023-06-14T09:44:08;3.80;;;3.40;;
13102;SDS011;52970;46.752;17.108;2023-06-14T09:46:34;3.88;;;3.42;;
13102;SDS011;52970;46.752;17.108;2023-06-14T09:49:00;4.70;;;3.50;;
13102;SDS011;52970;46.752;17.108;2023-06-14T09:51:26;3.65;;;3.33;;
13102;SDS011;52970;46.752;17.108;2023-06-14T09:53:52;4.30;;;3.65;;
13102;SDS011;52970;46.752;17.108;2023-06-14T09:58:46;4.53;;;3.35;;
13102;SDS011;52970;46.752;17.108;2023-06-14T10:01:11;5.60;;;3.72;;
13102;SDS011;52970;46.752;17.108;2023-06-14T10:03:38;3.65;;;3.35;;
13102;SDS011;52970;46.752;17.108;2023-06-14T10:06:04;3.53;;;3.22;;
13102;SDS011;52970;46.752;17.108;2023-06-14T10:08:31;4.03;;;3.17;;
13102;SDS011;52970;46.752;17.108;2023-06-14T10:10:59;3.33;;;3.03;;
13102;SDS011;52970;46.752;17.108;2023-06-14T10:13:25;10.35;;;3.72;;
13102;SDS011;52970;46.752;17.108;2023-06-14T10:18:19;4.20;;;3.55;;
13102;SDS011;52970;46.752;17.108;2023-06-14T10:23:24;4.00;;;3.60;;
13102;SDS011;52970;46.752;17.108;2023-06-14T10:25:50;5.85;;;4.28;;
13102;SDS011;52970;46.752;17.108;2023-06-14T10:28:19;8.23;;;4.13;;
13102;SDS011;52970;46.752;17.108;2023-06-14T10:31:06;4.60;;;4.00;;
13102;SDS011;52970;46.752;17.108;2023-06-14T10:33:32;3.90;;;3.20;;
13102;SDS011;52970;46.752;17.108;2023-06-14T10:38:42;4.70;;;3.97;;
13102;SDS011;52970;46.752;17.108;2023-06-14T10:41:07;4.28;;;3.63;;
13102;SDS011;52970;46.752;17.108;2023-06-14T10:43:33;4.45;;;3.97;;
13102;SDS011;52970;46.752;17.108;2023-06-14T10:48:45;4.47;;;4.07;;
13102;SDS011;52970;46.752;17.108;2023-06-14T10:51:20;5.22;;;3.90;;
13102;SDS011;52970;46.752;17.108;2023-06-14T10:53:46;4.75;;;3.97;;
13102;SDS011;52970;46.752;17.108;2023-06-14T10:56:33;4.20;;;3.78;;
13102;SDS011;52970;46.752;17.108;2023-06-14T10:58:57;5.70;;;3.95;;
13102;SDS011;52970;46.752;17.108;2023-06-14T11:01:35;4.82;;;3.83;;
13102;SDS011;52970;46.752;17.108;2023-06-14T11:04:08;5.05;;;3.92;;
13102;SDS011;52970;46.752;17.108;2023-06-14T11:06:54;7.35;;;4.10;;
13102;SDS011;52970;46.752;17.108;2023-06-14T11:12:04;4.68;;;3.83;;
13102;SDS011;52970;46.752;17.108;2023-06-14T11:14:31;6.68;;;4.10;;
13102;SDS011;52970;46.752;17.108;2023-06-14T11:16:56;4.78;;;4.38;;
13102;SDS011;52970;46.752;17.108;2023-06-14T11:19:22;5.00;;;4.13;;
13102;SDS011;52970;46.752;17.108;2023-06-14T11:21:47;5.03;;;4.53;;
13102;SDS011;52970;46.752;17.108;2023-06-14T11:24:13;4.90;;;4.40;;
13102;SDS011;52970;46.752;17.108;2023-06-14T11:26:39;4.70;;;4.22;;
13102;SDS011;52970;46.752;17.108;2023-06-14T11:29:05;4.63;;;4.13;;
13102;SDS011;52970;46.752;17.108;2023-06-14T11:31:30;4.75;;;4.25;;
13102;SDS011;52970;46.752;17.108;2023-06-14T11:33:56;6.10;;;4.38;;
13102;SDS011;52970;46.752;17.108;2023-06-14T11:36:22;9.65;;;4.40;;
13102;SDS011;52970;46.752;17.108;2023-06-14T11:38:47;4.70;;;4.07;;
13102;SDS011;52970;46.752;17.108;2023-06-14T11:41:12;5.43;;;4.28;;
13102;SDS011;52970;46.752;17.108;2023-06-14T11:43:39;4.75;;;4.32;;
13102;SDS011;52970;46.752;17.108;2023-06-14T11:46:04;9.27;;;4.47;;
13102;SDS011;52970;46.752;17.108;2023-06-14T11:48:37;6.40;;;4.70;;
13102;SDS011;52970;46.752;17.108;2023-06-14T11:51:02;6.93;;;4.00;;
13102;SDS011;52970;46.752;17.108;2023-06-14T11:53:28;4.40;;;4.00;;
13102;SDS011;52970;46.752;17.108;2023-06-14T11:55:53;5.97;;;3.88;;
13102;SDS011;52970;46.752;17.108;2023-06-14T11:58:18;4.40;;;3.90;;
13102;SDS011;52970;46.752;17.108;2023-06-14T12:00:43;4.93;;;3.85;;
13102;SDS011;52970;46.752;17.108;2023-06-14T12:03:09;5.13;;;4.25;;
13102;SDS011;52970;46.752;17.108;2023-06-14T12:05:34;5.40;;;4.03;;
13102;SDS011;52970;46.752;17.108;2023-06-14T12:07:59;5.07;;;4.18;;
13102;SDS011;52970;46.752;17.108;2023-06-14T12:10:26;11.20;;;3.55;;
13102;SDS011;52970;46.752;17.108;2023-06-14T12:12:56;5.18;;;4.25;;
13102;SDS011;52970;46.752;17.108;2023-06-14T12:15:21;5.20;;;4.45;;
13102;SDS011;52970;46.752;17.108;2023-06-14T12:17:46;5.13;;;3.85;;
13102;SDS011;52970;46.752;17.108;2023-06-14T12:20:12;6.25;;;3.88;;
13102;SDS011;52970;46.752;17.108;2023-06-14T12:22:54;4.47;;;3.80;;
13102;SDS011;52970;46.752;17.108;2023-06-14T12:27:52;4.28;;;3.72;;
13102;SDS011;52970;46.752;17.108;2023-06-14T12:30:17;4.20;;;3.75;;
13102;SDS011;52970;46.752;17.108;2023-06-14T12:32:42;4.43;;;3.95;;
13102;SDS011;52970;46.752;17.108;2023-06-14T12:35:09;5.68;;;4.10;;
13102;SDS011;52970;46.752;17.108;2023-06-14T12:37:34;7.22;;;4.40;;
13102;SDS011;52970;46.752;17.108;2023-06-14T12:39:59;4.55;;;3.97;;
13102;SDS011;52970;46.752;17.108;2023-06-14T12:42:24;5.68;;;3.65;;
13102;SDS011;52970;46.752;17.108;2023-06-14T12:44:50;5.13;;;4.20;;
13102;SDS011;52970;46.752;17.108;2023-06-14T12:47:15;4.18;;;3.70;;
13102;SDS011;52970;46.752;17.108;2023-06-14T12:49:40;5.38;;;4.20;;
13102;SDS011;52970;46.752;17.108;2023-06-14T12:52:06;4.38;;;3.95;;
13102;SDS011;52970;46.752;17.108;2023-06-14T12:54:31;4.47;;;4.07;;
13102;SDS011;52970;46.752;17.108;2023-06-14T12:56:57;7.95;;;3.70;;
13102;SDS011;52970;46.752;17.108;2023-06-14T12:59:22;5.28;;;4.20;;
13102;SDS011;52970;46.752;17.108;2023-06-14T13:01:47;6.15;;;4.20;;
13102;SDS011;52970;46.752;17.108;2023-06-14T13:04:15;5.80;;;4.47;;
13102;SDS011;52970;46.752;17.108;2023-06-14T13:06:40;6.38;;;3.95;;
13102;SDS011;52970;46.752;17.108;2023-06-14T13:09:05;5.22;;;3.95;;
13102;SDS011;52970;46.752;17.108;2023-06-14T13:11:31;4.10;;;3.33;;
13102;SDS011;52970;46.752;17.108;2023-06-14T13:13:56;4.35;;;3.30;;
13102;SDS011;52970;46.752;17.108;2023-06-14T13:16:21;4.82;;;4.05;;
13102;SDS011;52970;46.752;17.108;2023-06-14T13:18:46;3.70;;;3.33;;
13102;SDS011;52970;46.752;17.108;2023-06-14T13:21:12;4.28;;;3.50;;
13102;SDS011;52970;46.752;17.108;2023-06-14T13:23:37;4.53;;;3.63;;
13102;SDS011;52970;46.752;17.108;2023-06-14T13:26:02;4.37;;;3.60;;
13102;SDS011;52970;46.752;17.108;2023-06-14T13:28:27;4.47;;;3.25;;
13102;SDS011;52970;46.752;17.108;2023-06-14T13:30:53;3.70;;;3.40;;
13102;SDS011;52970;46.752;17.108;2023-06-14T13:33:21;8.13;;;3.50;;
13102;SDS011;52970;46.752;17.108;2023-06-14T13:35:46;3.65;;;3.28;;
13102;SDS011;52970;46.752;17.108;2023-06-14T13:38:13;5.30;;;3.40;;
13102;SDS011;52970;46.752;17.108;2023-06-14T13:40:39;3.90;;;3.53;;
13102;SDS011;52970;46.752;17.108;2023-06-14T13:43:05;4.68;;;3.50;;
13102;SDS011;52970;46.752;17.108;2023-06-14T13:45:30;3.65;;;3.35;;
13102;SDS011;52970;46.752;17.108;2023-06-14T13:47:55;4.17;;;3.77;;
13102;SDS011;52970;46.752;17.108;2023-06-14T13:50:20;5.03;;;3.90;;
13102;SDS011;52970;46.752;17.108;2023-06-14T13:52:46;4.65;;;3.30;;
13102;SDS011;52970;46.752;17.108;2023-06-14T13:55:11;4.75;;;3.60;;
13102;SDS011;52970;46.752;17.108;2023-06-14T13:57:36;4.65;;;3.83;;
13102;SDS011;52970;46.752;17.108;2023-06-14T14:00:02;5.30;;;4.10;;
13102;SDS011;52970;46.752;17.108;2023-06-14T14:02:28;5.20;;;4.03;;
13102;SDS011;52970;46.752;17.108;2023-06-14T14:04:54;4.38;;;3.95;;
13102;SDS011;52970;46.752;17.108;2023-06-14T14:07:20;4.70;;;4.30;;
13102;SDS011;52970;46.752;17.108;2023-06-14T14:09:45;4.47;;;3.80;;
13102;SDS011;52970;46.752;17.108;2023-06-14T14:12:10;4.60;;;4.05;;
13102;SDS011;52970;46.752;17.108;2023-06-14T14:14:36;7.22;;;4.40;;
13102;SDS011;52970;46.752;17.108;2023-06-14T14:17:01;5.50;;;3.67;;
13102;SDS011;52970;46.752;17.108;2023-06-14T14:19:27;5.90;;;4.30;;
13102;SDS011;52970;46.752;17.108;2023-06-14T14:21:52;6.88;;;3.67;;
13102;SDS011;52970;46.752;17.108;2023-06-14T14:24:18;5.05;;;3.88;;
13102;SDS011;52970;46.752;17.108;2023-06-14T14:26:44;4.27;;;3.83;;
13102;SDS011;52970;46.752;17.108;2023-06-14T14:29:12;4.07;;;3.20;;
13102;SDS011;52970;46.752;17.108;2023-06-14T14:31:37;3.80;;;3.50;;
13102;SDS011;52970;46.752;17.108;2023-06-14T14:34:02;4.03;;;3.63;;
13102;SDS011;52970;46.752;17.108;2023-06-14T14:36:28;4.10;;;3.17;;
13102;SDS011;52970;46.752;17.108;2023-06-14T14:38:53;3.75;;;3.33;;
13102;SDS011;52970;46.752;17.108;2023-06-14T14:41:18;5.68;;;3.35;;
13102;SDS011;52970;46.752;17.108;2023-06-14T14:43:44;3.78;;;3.47;;
13102;SDS011;52970;46.752;17.108;2023-06-14T14:46:09;3.60;;;3.30;;
13102;SDS011;52970;46.752;17.108;2023-06-14T14:48:34;3.75;;;3.20;;
13102;SDS011;52970;46.752;17.108;2023-06-14T14:51:00;4.05;;;3.65;;